createdAt,value
2022-11-09T00:02:10.646Z,17.9
2022-11-09T00:04:58.031Z,18.5
2022-11-09T00:07:45.381Z,18.9
2022-11-09T00:10:32.722Z,15.9
2022-11-09T00:13:21.149Z,15.6
2022-11-09T00:16:09.066Z,17.2
2022-11-09T00:18:59.314Z,16.8
2022-11-09T00:21:46.730Z,18.1
2022-11-09T00:24:34.114Z,17.1
2022-11-09T00:27:22.127Z,17.1
2022-11-09T00:30:09.775Z,17.4
2022-11-09T00:32:57.944Z,17.4
2022-11-09T00:35:45.353Z,17.4
2022-11-09T00:38:32.671Z,16.1
2022-11-09T00:41:21.168Z,17.8
2022-11-09T00:44:09.112Z,18.8
2022-11-09T00:46:56.747Z,16.9
2022-11-09T00:49:44.182Z,20.2
2022-11-09T00:52:31.701Z,20.3
2022-11-09T00:55:19.013Z,16.6
2022-11-09T00:58:08.548Z,18.4
2022-11-09T01:00:56.106Z,18.5
2022-11-09T01:03:45.234Z,17.9
2022-11-09T01:06:34.146Z,17
2022-11-09T01:09:22.295Z,18
2022-11-09T01:12:09.577Z,16.5
2022-11-09T01:14:57.478Z,17.4
2022-11-09T01:17:45.563Z,16.2
2022-11-09T01:20:32.964Z,17.8
2022-11-09T01:23:25.140Z,17
2022-11-09T01:26:12.584Z,17.1
2022-11-09T01:29:00.739Z,16.5
2022-11-09T01:31:48.428Z,16.7
2022-11-09T01:34:35.828Z,15.8
2022-11-09T01:37:25.428Z,17.5
2022-11-09T01:40:12.742Z,16.7
2022-11-09T01:43:00.287Z,17.7
2022-11-09T01:45:52.636Z,17.6
2022-11-09T01:48:44.571Z,17.3
2022-11-09T01:51:36.177Z,16.3
2022-11-09T01:54:27.443Z,16.3
2022-11-09T01:57:17.426Z,17.5
2022-11-09T02:00:09.690Z,16.1
2022-11-09T02:03:00.626Z,16.9
2022-11-09T02:05:52.117Z,17.9
2022-11-09T02:08:39.621Z,16.7
2022-11-09T02:11:29.301Z,18.1
2022-11-09T02:14:16.644Z,17
2022-11-09T02:17:08.060Z,17.1
2022-11-09T02:19:56.426Z,17.9
2022-11-09T02:22:43.787Z,16.3
2022-11-09T02:25:31.452Z,15.9
2022-11-09T02:28:18.753Z,15.9
2022-11-09T02:31:06.772Z,17.1
2022-11-09T02:33:58.323Z,18.1
2022-11-09T02:36:49.832Z,15.6
2022-11-09T02:39:37.843Z,16.6
2022-11-09T02:42:25.387Z,17.1
2022-11-09T02:45:13.203Z,17.8
2022-11-09T02:48:00.530Z,18.1
2022-11-09T02:50:48.541Z,17.8
2022-11-09T02:53:36.262Z,17.7
2022-11-09T02:56:24.551Z,17.4
2022-11-09T02:59:11.909Z,17.7
2022-11-09T03:01:59.204Z,17.1
2022-11-09T03:04:46.568Z,17.8
2022-11-09T03:07:34.069Z,17.8
2022-11-09T03:10:22.152Z,16
2022-11-09T03:13:09.529Z,17.6
2022-11-09T03:15:56.895Z,17.3
2022-11-09T03:18:48.961Z,17.6
2022-11-09T03:21:37.099Z,17.6
2022-11-09T03:24:25.380Z,17.5
2022-11-09T03:27:12.736Z,16.5
2022-11-09T03:30:00.292Z,16.4
2022-11-09T03:32:50.772Z,18.3
2022-11-09T03:35:43.787Z,17.1
2022-11-09T03:38:31.374Z,17.6
2022-11-09T03:41:18.644Z,17.1
2022-11-09T03:44:05.976Z,17.7
2022-11-09T03:46:53.328Z,17.1
2022-11-09T03:49:40.600Z,17.8
2022-11-09T03:52:27.959Z,17.8
2022-11-09T03:55:15.291Z,16.6
2022-11-09T03:58:02.793Z,17.4
2022-11-09T04:00:51.621Z,16.7
2022-11-09T04:03:38.904Z,16.9
2022-11-09T04:06:26.293Z,17.8
2022-11-09T04:09:13.692Z,17.3
2022-11-09T04:12:02.055Z,17.3
2022-11-09T04:14:50.271Z,16.4
2022-11-09T04:17:37.904Z,16.5
2022-11-09T04:20:26.347Z,17.5
2022-11-09T04:23:15.893Z,17.5
2022-11-09T04:26:03.356Z,17
2022-11-09T04:28:50.925Z,16.4
2022-11-09T04:31:38.668Z,16.2
2022-11-09T04:34:25.881Z,17.6
2022-11-09T04:37:13.329Z,16
2022-11-09T04:40:00.652Z,15.8
2022-11-09T04:42:48.754Z,18.1
2022-11-09T04:45:36.653Z,16.2
2022-11-09T04:48:25.209Z,16.6
2022-11-09T04:51:12.543Z,17.3
2022-11-09T04:53:59.896Z,16.7
2022-11-09T04:56:47.214Z,16.5
2022-11-09T04:59:34.665Z,16.1
2022-11-09T05:02:22.850Z,16.5
2022-11-09T05:05:10.119Z,17.5
2022-11-09T05:07:57.364Z,17.8
2022-11-09T05:10:44.979Z,16.9
2022-11-09T05:13:32.303Z,19.5
2022-11-09T05:16:19.630Z,16.7
2022-11-09T05:19:07.883Z,16.6
2022-11-09T05:21:55.737Z,16.8
2022-11-09T05:26:43.358Z,17.3
2022-11-09T05:29:30.673Z,18
2022-11-09T05:32:17.889Z,17.3
2022-11-09T05:35:05.223Z,16
2022-11-09T05:37:53.373Z,17.5
2022-11-09T05:40:40.737Z,16.5
2022-11-09T05:43:28.146Z,17.4
2022-11-09T05:46:15.520Z,17.1
2022-11-09T05:49:03.644Z,16.9
2022-11-09T05:51:50.952Z,18.2
2022-11-09T05:54:38.601Z,17.1
2022-11-09T05:57:26.018Z,17.2
2022-11-09T06:00:13.944Z,18
2022-11-09T06:03:02.062Z,17.8
2022-11-09T06:05:51.081Z,17.2
2022-11-09T06:08:38.368Z,19.2
2022-11-09T06:11:26.644Z,18.5
2022-11-09T06:14:14.312Z,18.5
2022-11-09T06:17:01.861Z,17.7
2022-11-09T06:19:49.239Z,18.5
2022-11-09T06:22:37.030Z,19.1
2022-11-09T06:25:24.958Z,18.3
2022-11-09T06:28:12.839Z,18.1
2022-11-09T06:31:00.218Z,17.9
2022-11-09T06:33:51.077Z,19.5
2022-11-09T06:36:38.689Z,18.2
2022-11-09T06:39:25.940Z,17.3
2022-11-09T06:42:13.251Z,18.1
2022-11-09T06:45:00.584Z,19.5
2022-11-09T06:47:48.061Z,17.2
2022-11-09T06:50:35.775Z,17.4
2022-11-09T06:53:24.563Z,19.4
2022-11-09T06:56:14.399Z,18.4
2022-11-09T06:59:02.426Z,20.4
2022-11-09T07:01:49.923Z,19.9
2022-11-09T07:04:37.747Z,20.4
2022-11-09T07:07:28.117Z,18.7
2022-11-09T07:10:16.749Z,18.3
2022-11-09T07:13:04.539Z,16.8
2022-11-09T07:15:52.749Z,20.1
2022-11-09T07:18:40.093Z,20.7
2022-11-09T07:21:27.442Z,18.9
2022-11-09T07:24:14.633Z,20.2
2022-11-09T07:27:02.427Z,19
2022-11-09T07:29:49.892Z,18.3
2022-11-09T07:33:07.563Z,18.9
2022-11-09T07:35:59.942Z,19.2
2022-11-09T07:38:49.311Z,18.9
2022-11-09T07:41:36.859Z,18.7
2022-11-09T07:44:25.370Z,18.2
2022-11-09T07:47:15.753Z,18.4
2022-11-09T07:50:05.915Z,18.1
2022-11-09T07:52:53.990Z,17.4
2022-11-09T07:55:41.966Z,17.9
2022-11-09T07:58:29.471Z,16.5
2022-11-09T08:01:18.896Z,16.1
2022-11-09T08:04:06.218Z,17.7
2022-11-09T08:06:54.373Z,15.6
2022-11-09T08:09:41.724Z,17.6
2022-11-09T08:12:32.975Z,16.8
2022-11-09T08:15:25.285Z,18.2
2022-11-09T08:18:13.504Z,17.7
2022-11-09T08:21:04.392Z,17.3
2022-11-09T08:23:51.845Z,16.9
2022-11-09T08:26:39.144Z,16.3
2022-11-09T08:29:27.054Z,16.9
2022-11-09T08:32:14.396Z,15.1
2022-11-09T08:35:01.840Z,16.7
2022-11-09T08:37:50.257Z,15.4
2022-11-09T08:40:38.809Z,15.7
2022-11-09T08:43:26.291Z,16.1
2022-11-09T08:46:13.621Z,17.1
2022-11-09T08:49:00.919Z,15.6
2022-11-09T08:51:48.378Z,14.1
2022-11-09T08:54:36.593Z,14.2
2022-11-09T08:57:25.196Z,14.8
2022-11-09T09:00:13.152Z,13.7
2022-11-09T09:03:01.559Z,14.6
2022-11-09T09:05:50.202Z,15.6
2022-11-09T09:08:37.845Z,15
2022-11-09T09:11:25.900Z,13.3
2022-11-09T09:14:13.763Z,14
2022-11-09T09:17:01.335Z,13.5
2022-11-09T09:19:50.284Z,15.1
2022-11-09T09:22:38.197Z,13.6
2022-11-09T09:25:25.817Z,15.1
2022-11-09T09:28:14.036Z,14
2022-11-09T09:31:01.434Z,14.5
2022-11-09T09:33:49.688Z,13.8
2022-11-09T09:36:37.347Z,14.7
2022-11-09T09:39:25.887Z,12.9
2022-11-09T09:42:13.527Z,14.3
2022-11-09T09:45:06.301Z,14.8
2022-11-09T09:48:03.159Z,13.4
2022-11-09T09:51:10.665Z,13.8
2022-11-09T09:54:04.600Z,14.5
2022-11-09T09:56:57.377Z,12.8
2022-11-09T09:59:46.688Z,14.4
2022-11-09T10:02:37.079Z,14.4
2022-11-09T10:05:25.659Z,12.8
2022-11-09T10:08:25.076Z,14
2022-11-09T10:11:23.599Z,14.7
2022-11-09T10:14:22.034Z,14.8
2022-11-09T10:17:25.496Z,13.4
2022-11-09T10:20:23.582Z,14.2
2022-11-09T10:23:21.906Z,13.1
2022-11-09T10:26:24.572Z,14.7
2022-11-09T10:29:19.213Z,13.1
2022-11-09T10:32:09.129Z,13.3
2022-11-09T10:35:00.479Z,14.2
2022-11-09T10:37:55.403Z,13.9
2022-11-09T10:40:42.892Z,13.6
2022-11-09T10:43:37.707Z,14.3
2022-11-09T10:46:25.867Z,12.7
2022-11-09T10:49:13.195Z,12.8
2022-11-09T10:52:05.700Z,12.8
2022-11-09T10:55:24.390Z,12
2022-11-09T10:58:14.097Z,10.9
2022-11-09T11:01:12.174Z,11.7
2022-11-09T11:04:02.473Z,12.5
2022-11-09T11:07:05.913Z,12.9
2022-11-09T11:09:59.962Z,13.4
2022-11-09T11:12:55.765Z,12.2
2022-11-09T11:16:04.825Z,11.7
2022-11-09T11:19:01.078Z,11.6
2022-11-09T11:21:49.916Z,12.1
2022-11-09T11:25:03.912Z,11.1
2022-11-09T11:28:04.227Z,12.3
2022-11-09T11:31:02.972Z,11.1
2022-11-09T11:33:56.498Z,11.8
2022-11-09T11:36:44.143Z,12
2022-11-09T11:39:42.051Z,12.3
2022-11-09T11:42:43.406Z,11.5
2022-11-09T11:45:44.144Z,11.2
2022-11-09T11:48:39.155Z,12.1
2022-11-09T11:51:48.372Z,11.8
2022-11-09T11:54:44.079Z,12.4
2022-11-09T11:57:47.974Z,11.8
2022-11-09T12:00:51.917Z,12.6
2022-11-09T12:03:50.536Z,12.3
2022-11-09T12:06:48.001Z,11.5
2022-11-09T12:09:49.975Z,12.2
2022-11-09T12:12:59.795Z,12.1
2022-11-09T12:15:57.747Z,12.5
2022-11-09T12:18:52.932Z,11.6
2022-11-09T12:21:58.799Z,12.8
2022-11-09T12:24:53.918Z,12.6
2022-11-09T12:27:47.921Z,11.9
2022-11-09T12:30:48.786Z,11.4
2022-11-09T12:33:49.861Z,11.3
2022-11-09T12:36:47.048Z,11.6
2022-11-09T12:39:39.575Z,12.5
2022-11-09T12:42:30.958Z,12.1
2022-11-09T12:45:28.523Z,11
2022-11-09T12:48:19.157Z,11.5
2022-11-09T12:51:10.552Z,12
2022-11-09T12:53:58.098Z,11.9
2022-11-09T12:56:54.625Z,11.6
2022-11-09T12:59:44.866Z,11.7
2022-11-09T13:02:34.798Z,13.4
2022-11-09T13:05:27.844Z,12.6
2022-11-09T13:08:17.566Z,11.8
2022-11-09T13:11:11.103Z,14.2
2022-11-09T13:14:10.847Z,13.2
2022-11-09T13:17:30.474Z,13.2
2022-11-09T13:20:54.678Z,13.2
2022-11-09T13:24:23.170Z,13.8
2022-11-09T13:27:44.725Z,13.6
2022-11-09T13:30:33.263Z,14.4
2022-11-09T13:33:27.218Z,15.4
2022-11-09T13:36:15.746Z,13.8
2022-11-09T13:39:05.383Z,14
2022-11-09T13:42:24.924Z,15.3
2022-11-09T13:45:16.142Z,14.8
2022-11-09T13:48:12.772Z,13
2022-11-09T13:51:20.183Z,14.6
2022-11-09T13:54:11.522Z,15.1
2022-11-09T13:57:16.948Z,14.1
2022-11-09T14:00:05.524Z,13.6
2022-11-09T14:03:03.452Z,14.7
2022-11-09T14:06:08.649Z,14.5
2022-11-09T14:08:58.166Z,14.6
2022-11-09T14:11:46.609Z,16.9
2022-11-09T14:14:49.445Z,15.9
2022-11-09T14:17:52.599Z,14.8
2022-11-09T14:20:55.463Z,16.3
2022-11-09T14:23:52.766Z,15.2
2022-11-09T14:26:40.181Z,17
2022-11-09T14:29:47.020Z,15.5
2022-11-09T14:32:38.182Z,14.7
2022-11-09T14:35:32.419Z,17.8
2022-11-09T14:38:22.399Z,16.9
2022-11-09T14:41:13.692Z,15.7
2022-11-09T14:44:07.086Z,14.6
2022-11-09T14:47:02.404Z,18.7
2022-11-09T14:49:51.073Z,16.6
2022-11-09T14:52:38.703Z,16.2
2022-11-09T14:55:26.476Z,16.3
2022-11-09T14:58:15.431Z,16.3
2022-11-09T15:01:04.951Z,18.2
2022-11-09T15:03:55.708Z,15.7
2022-11-09T15:07:01.491Z,17.4
2022-11-09T15:09:50.058Z,16.9
2022-11-09T15:12:46.393Z,17.8
2022-11-09T15:15:39.542Z,16.5
2022-11-09T15:18:30.433Z,18.2
2022-11-09T15:21:27.125Z,16.4
2022-11-09T15:24:20.932Z,16.4
2022-11-09T15:27:10.792Z,14.7
2022-11-09T15:30:17.894Z,16.3
2022-11-09T15:33:16.673Z,16.8
2022-11-09T15:36:10.303Z,16.7
2022-11-09T15:39:13.619Z,17.2
2022-11-09T15:42:03.563Z,17.3
2022-11-09T15:44:51.211Z,15.6
2022-11-09T15:47:40.756Z,16.3
2022-11-09T15:50:37.147Z,14.3
2022-11-09T15:53:25.481Z,15.7
2022-11-09T15:56:12.939Z,16.2
2022-11-09T15:59:02.823Z,16.1
2022-11-09T16:01:51.405Z,15.8
2022-11-09T16:04:40.548Z,16.8
2022-11-09T16:07:27.936Z,16.6
2022-11-09T16:10:15.392Z,16.2
2022-11-09T16:13:04.889Z,18.8
2022-11-09T16:15:53.442Z,19.5
2022-11-09T16:18:47.714Z,17.9
2022-11-09T16:21:35.089Z,20.3
2022-11-09T16:24:23.267Z,20.4
2022-11-09T16:27:22.262Z,18.5
2022-11-09T16:30:23.781Z,18.8
2022-11-09T16:33:11.163Z,20
2022-11-09T16:35:58.621Z,19.1
2022-11-09T16:38:49.421Z,18.9
2022-11-09T16:41:38.918Z,18.5
2022-11-09T16:44:27.457Z,17.5
2022-11-09T16:47:18.896Z,16.9
2022-11-09T16:50:06.692Z,16.8
2022-11-09T16:52:54.761Z,20.6
2022-11-09T16:55:42.201Z,18.3
2022-11-09T16:58:29.400Z,19.1
2022-11-09T17:01:20.719Z,19.6
2022-11-09T17:04:10.882Z,18.6
2022-11-09T17:06:58.799Z,20.6
2022-11-09T17:09:46.295Z,20.1
2022-11-09T17:12:33.819Z,20.7
2022-11-09T17:15:22.198Z,20.1
2022-11-09T17:18:10.540Z,19.9
2022-11-09T17:20:58.855Z,20.7
2022-11-09T17:23:46.309Z,20.7
2022-11-09T17:26:35.101Z,21.8
2022-11-09T17:29:23.457Z,24.4
2022-11-09T17:32:12.050Z,22.8
2022-11-09T17:34:59.597Z,21.3
2022-11-09T17:37:47.027Z,20.7
2022-11-09T17:40:34.488Z,22.9
2022-11-09T17:43:22.859Z,22.7
2022-11-09T17:46:10.744Z,20.4
2022-11-09T17:49:02.670Z,19.5
2022-11-09T17:51:53.890Z,20.8
2022-11-09T17:54:42.227Z,19.7
2022-11-09T17:57:29.711Z,18.7
2022-11-09T18:00:17.382Z,19.4
2022-11-09T18:03:05.415Z,21.6
2022-11-09T18:05:52.723Z,17.7
2022-11-09T18:08:40.140Z,19.5
2022-11-09T18:11:28.425Z,20.9
2022-11-09T18:14:15.937Z,18.6
2022-11-09T18:17:03.488Z,20.2
2022-11-09T18:19:50.847Z,20.3
2022-11-09T18:22:38.538Z,19.7
2022-11-09T18:25:26.211Z,20.5
2022-11-09T18:28:13.587Z,19.5
2022-11-09T18:31:00.957Z,19.7
2022-11-09T18:33:50.285Z,19.9
2022-11-09T18:36:38.227Z,18.9
2022-11-09T18:39:26.311Z,20.8
2022-11-09T18:42:13.673Z,20.3
2022-11-09T18:45:01.002Z,20.4
2022-11-09T18:47:49.179Z,20.5
2022-11-09T18:50:36.602Z,21.2
2022-11-09T18:53:25.273Z,19.9
2022-11-09T18:56:15.113Z,21
2022-11-09T18:59:06.283Z,20.7
2022-11-09T19:01:57.038Z,20.9
2022-11-09T19:04:44.487Z,20.9
2022-11-09T19:07:32.842Z,21.2
2022-11-09T19:10:20.248Z,19.1
2022-11-09T19:13:07.526Z,21.1
2022-11-09T19:15:58.295Z,20.1
2022-11-09T19:18:46.390Z,23.7
2022-11-09T19:21:33.950Z,21.8
2022-11-09T19:24:24.885Z,21.9
2022-11-09T19:27:14.497Z,20.3
2022-11-09T19:30:07.932Z,23.9
2022-11-09T19:32:57.310Z,22.8
2022-11-09T19:35:52.748Z,24.2
2022-11-09T19:38:50.185Z,22.5
2022-11-09T19:41:37.805Z,23.4
2022-11-09T19:44:26.133Z,24.1
2022-11-09T19:47:13.442Z,25.8
2022-11-09T19:50:02.375Z,22.4
2022-11-09T19:52:51.901Z,24.3
2022-11-09T19:55:40.121Z,24.2
2022-11-09T19:58:27.615Z,25.4
2022-11-09T20:01:15.381Z,26.4
2022-11-09T20:04:07.722Z,23.1
2022-11-09T20:06:57.646Z,26.8
2022-11-09T20:09:44.959Z,26.9
2022-11-09T20:12:32.354Z,28.1
2022-11-09T20:15:35.573Z,23.6
2022-11-09T20:18:24.368Z,24
2022-11-09T20:21:11.808Z,26.4
2022-11-09T20:23:59.882Z,24.6
2022-11-09T20:26:47.907Z,26
2022-11-09T20:29:35.339Z,28.6
2022-11-09T20:32:23.674Z,28.5
2022-11-09T20:35:11.099Z,26.2
2022-11-09T20:37:58.461Z,30.2
2022-11-09T20:40:45.823Z,27.5
2022-11-09T20:43:39.297Z,25
2022-11-09T20:46:32.679Z,27.8
2022-11-09T20:49:24.101Z,24.2
2022-11-09T20:52:11.766Z,25.1
2022-11-09T20:54:59.116Z,29.2
2022-11-09T20:57:46.572Z,25.2
2022-11-09T21:00:33.970Z,27.6
2022-11-09T21:03:22.360Z,27.1
2022-11-09T21:06:11.437Z,28.2
2022-11-09T21:09:00.113Z,28.6
2022-11-09T21:11:50.135Z,27.8
2022-11-09T21:15:09.439Z,25.8
2022-11-09T21:17:59.760Z,24.3
2022-11-09T21:20:47.180Z,28.8
2022-11-09T21:23:34.536Z,26.9
2022-11-09T21:26:54.778Z,25.3
2022-11-09T21:30:13.817Z,26.7
2022-11-09T21:33:03.315Z,28.3
2022-11-09T21:35:51.200Z,26.9
2022-11-09T21:38:38.864Z,26.3
2022-11-09T21:41:26.222Z,30.4
2022-11-09T21:44:29.316Z,28.7
2022-11-09T21:47:18.142Z,27.6
2022-11-09T21:50:12.162Z,26.6
2022-11-09T21:53:00.617Z,24.8
2022-11-09T21:55:48.463Z,26
2022-11-09T21:58:36.096Z,22.5
2022-11-09T22:01:24.848Z,27.7
2022-11-09T22:04:12.212Z,25.9
2022-11-09T22:07:00.557Z,28.2
2022-11-09T22:10:08.796Z,27.7
2022-11-09T22:12:57.670Z,26
2022-11-09T22:16:16.645Z,25.1
2022-11-09T22:19:04.565Z,27.1
2022-11-09T22:22:23.392Z,25.8
2022-11-09T22:25:14.411Z,24.9
2022-11-09T22:28:01.812Z,23.7
2022-11-09T22:30:49.369Z,27.7
2022-11-09T22:33:36.885Z,24.6
2022-11-09T22:36:25.424Z,25.3
2022-11-09T22:39:12.744Z,26.2
2022-11-09T22:42:00.317Z,24.5
2022-11-09T22:44:47.726Z,25.6
2022-11-09T22:47:35.145Z,24.9
2022-11-09T22:50:23.548Z,24.9
2022-11-09T22:53:11.204Z,25.1
2022-11-09T22:55:58.733Z,25.2
2022-11-09T22:58:47.839Z,24.7
2022-11-09T23:01:37.734Z,26.6
2022-11-09T23:04:26.166Z,24.9
2022-11-09T23:07:13.549Z,26.7
2022-11-09T23:10:01.345Z,24.6
2022-11-09T23:12:50.188Z,25.7
2022-11-09T23:15:37.808Z,24.6
2022-11-09T23:18:25.900Z,23.7
2022-11-09T23:21:45.672Z,25.8
2022-11-09T23:24:32.849Z,24.3
2022-11-09T23:29:25.200Z,25
2022-11-09T23:32:12.532Z,21.5
2022-11-09T23:35:00.097Z,25.2
2022-11-09T23:37:47.649Z,25.2
2022-11-09T23:40:43.353Z,27.3
2022-11-09T23:43:30.912Z,24.5
2022-11-09T23:46:18.476Z,25.9
2022-11-09T23:49:05.774Z,24.2
2022-11-09T23:51:53.012Z,22.5
2022-11-09T23:54:40.900Z,24.5
2022-11-09T23:57:30.176Z,26.5
